createdAt,value
2019-03-23T00:02:00.602Z,19.23
2019-03-23T00:04:27.233Z,18.83
2019-03-23T00:06:53.795Z,20.87
2019-03-23T00:09:21.160Z,20.97
2019-03-23T00:11:47.902Z,21.00
2019-03-23T00:14:14.536Z,20.57
2019-03-23T00:16:41.366Z,21.20
2019-03-23T00:19:08.114Z,21.17
2019-03-23T00:21:34.692Z,21.20
2019-03-23T00:24:04.284Z,19.83
2019-03-23T00:26:31.072Z,21.57
2019-03-23T00:28:57.598Z,21.50
2019-03-23T00:31:24.265Z,21.00
2019-03-23T00:33:50.847Z,21.43
2019-03-23T00:36:17.490Z,21.50
2019-03-23T00:38:44.075Z,22.20
2019-03-23T00:41:10.659Z,21.87
2019-03-23T00:43:37.324Z,22.67
2019-03-23T00:46:03.918Z,22.57
2019-03-23T00:48:30.673Z,23.50
2019-03-23T00:50:57.247Z,23.63
2019-03-23T00:53:23.820Z,27.93
2019-03-23T00:55:50.453Z,25.03
2019-03-23T00:58:17.012Z,25.47
2019-03-23T01:00:43.658Z,24.97
2019-03-23T01:03:10.313Z,24.07
2019-03-23T01:05:36.925Z,23.07
2019-03-23T01:08:03.769Z,23.83
2019-03-23T01:10:31.829Z,25.07
2019-03-23T01:12:59.777Z,25.10
2019-03-23T01:15:26.580Z,25.93
2019-03-23T01:17:53.218Z,26.53
2019-03-23T01:20:21.611Z,26.70
2019-03-23T01:22:48.184Z,25.20
2019-03-23T01:25:14.846Z,26.80
2019-03-23T01:27:41.421Z,25.67
2019-03-23T01:30:12.712Z,27.23
2019-03-23T01:32:39.520Z,24.27
2019-03-23T01:35:07.613Z,25.33
2019-03-23T01:37:34.328Z,25.47
2019-03-23T01:40:01.202Z,27.00
2019-03-23T01:42:27.965Z,26.80
2019-03-23T01:44:54.635Z,26.83
2019-03-23T01:47:21.285Z,26.30
2019-03-23T01:49:47.945Z,25.13
2019-03-23T01:52:15.609Z,25.67
2019-03-23T01:54:42.457Z,27.43
2019-03-23T01:57:09.140Z,24.73
2019-03-23T01:59:35.716Z,24.40
2019-03-23T02:02:02.447Z,23.97
2019-03-23T02:04:29.226Z,23.33
2019-03-23T02:06:55.802Z,24.03
2019-03-23T02:09:22.718Z,23.50
2019-03-23T02:11:49.312Z,24.23
2019-03-23T02:14:15.968Z,24.37
2019-03-23T02:16:42.721Z,23.07
2019-03-23T02:19:09.521Z,26.37
2019-03-23T02:21:36.214Z,26.80
2019-03-23T02:24:02.976Z,28.03
2019-03-23T02:26:30.803Z,25.77
2019-03-23T02:28:57.672Z,28.20
2019-03-23T02:31:24.490Z,27.00
2019-03-23T02:33:51.165Z,25.37
2019-03-23T02:36:17.929Z,25.53
2019-03-23T02:38:50.130Z,27.40
2019-03-23T02:41:51.745Z,28.23
2019-03-23T02:44:18.562Z,28.97
2019-03-23T02:46:45.131Z,28.00
2019-03-23T02:49:11.789Z,27.03
2019-03-23T02:51:39.797Z,27.23
2019-03-23T02:54:07.005Z,26.37
2019-03-23T02:56:33.624Z,27.73
2019-03-23T02:59:00.237Z,26.47
2019-03-23T03:01:26.933Z,27.37
2019-03-23T03:03:53.524Z,26.97
2019-03-23T03:06:20.281Z,25.57
2019-03-23T03:08:46.883Z,24.93
2019-03-23T03:11:13.512Z,27.10
2019-03-23T03:13:40.278Z,26.33
2019-03-23T03:16:06.866Z,26.73
2019-03-23T03:18:33.526Z,27.33
2019-03-23T03:21:00.193Z,27.50
2019-03-23T03:23:26.760Z,28.67
2019-03-23T03:25:53.357Z,29.20
2019-03-23T03:28:20.026Z,29.40
2019-03-23T03:30:46.835Z,30.77
2019-03-23T03:33:13.446Z,29.50
2019-03-23T03:35:40.059Z,30.23
2019-03-23T03:38:06.633Z,30.23
2019-03-23T03:40:33.391Z,30.07
2019-03-23T03:43:00.181Z,30.60
2019-03-23T03:45:27.184Z,30.50
2019-03-23T03:47:54.147Z,30.70
2019-03-23T03:50:20.941Z,29.60
2019-03-23T03:52:47.703Z,30.43
2019-03-23T03:55:14.294Z,29.13
2019-03-23T03:57:40.864Z,28.97
2019-03-23T04:00:08.948Z,28.77
2019-03-23T04:02:36.613Z,29.27
2019-03-23T04:05:05.384Z,29.70
2019-03-23T04:07:32.020Z,29.17
2019-03-23T04:09:58.616Z,27.83
2019-03-23T04:12:25.198Z,30.23
2019-03-23T04:14:51.809Z,30.23
2019-03-23T04:17:18.752Z,29.30
2019-03-23T04:19:47.250Z,30.77
2019-03-23T04:22:13.868Z,28.77
2019-03-23T04:24:40.519Z,30.60
2019-03-23T04:27:07.221Z,29.53
2019-03-23T04:29:33.789Z,29.47
2019-03-23T04:32:00.578Z,31.97
2019-03-23T04:34:27.380Z,30.83
2019-03-23T04:36:57.319Z,30.53
2019-03-23T04:39:23.976Z,30.70
2019-03-23T04:41:50.643Z,29.63
2019-03-23T04:44:17.412Z,28.07
2019-03-23T04:46:44.140Z,30.67
2019-03-23T04:49:10.808Z,31.17
2019-03-23T04:51:37.548Z,31.00
2019-03-23T04:54:04.266Z,32.00
2019-03-23T04:56:30.856Z,32.30
2019-03-23T04:58:57.592Z,29.73
2019-03-23T05:01:24.183Z,32.60
2019-03-23T05:03:50.862Z,31.70
2019-03-23T05:06:17.467Z,30.53
2019-03-23T05:08:44.061Z,31.70
2019-03-23T05:11:10.636Z,31.70
2019-03-23T05:13:37.219Z,31.10
2019-03-23T05:16:03.969Z,29.87
2019-03-23T05:18:30.632Z,29.83
2019-03-23T05:20:57.300Z,30.73
2019-03-23T05:23:23.950Z,30.60
2019-03-23T05:25:50.565Z,29.60
2019-03-23T05:28:17.210Z,31.37
2019-03-23T05:30:44.857Z,29.07
2019-03-23T05:33:13.375Z,31.13
2019-03-23T05:35:39.939Z,30.13
2019-03-23T05:38:06.501Z,30.53
2019-03-23T05:40:33.122Z,31.43
2019-03-23T05:42:59.658Z,29.67
2019-03-23T05:45:26.534Z,28.03
2019-03-23T05:47:53.145Z,31.37
2019-03-23T05:50:19.695Z,29.63
2019-03-23T05:52:46.383Z,32.40
2019-03-23T05:55:13.104Z,29.30
2019-03-23T05:57:39.703Z,29.63
2019-03-23T06:00:10.688Z,30.07
2019-03-23T06:02:37.403Z,26.80
2019-03-23T06:05:05.437Z,28.90
2019-03-23T06:07:32.127Z,27.90
2019-03-23T06:09:58.869Z,29.33
2019-03-23T06:12:25.458Z,31.17
2019-03-23T06:14:52.040Z,28.63
2019-03-23T06:17:18.841Z,27.80
2019-03-23T06:19:45.429Z,28.83
2019-03-23T06:22:13.318Z,26.20
2019-03-23T06:24:39.943Z,26.87
2019-03-23T06:27:06.555Z,29.13
2019-03-23T06:29:33.101Z,27.43
2019-03-23T06:32:02.049Z,25.67
2019-03-23T06:34:28.746Z,24.87
2019-03-23T06:36:55.307Z,25.53
2019-03-23T06:39:21.940Z,25.77
2019-03-23T06:41:48.547Z,23.10
2019-03-23T06:44:15.297Z,23.87
2019-03-23T06:46:41.915Z,20.07
2019-03-23T06:49:08.534Z,21.30
2019-03-23T06:51:35.168Z,21.90
2019-03-23T06:54:01.818Z,18.83
2019-03-23T06:56:28.719Z,18.17
2019-03-23T06:58:55.563Z,15.20
2019-03-23T07:01:22.546Z,13.10
2019-03-23T07:03:49.215Z,13.10
2019-03-23T07:06:15.767Z,12.97
2019-03-23T07:08:42.339Z,12.47
2019-03-23T07:11:08.961Z,9.70
2019-03-23T07:13:35.559Z,10.60
2019-03-23T07:16:02.722Z,8.23
2019-03-23T07:18:29.387Z,6.57
2019-03-23T07:20:56.099Z,6.33
2019-03-23T07:23:23.356Z,7.17
2019-03-23T07:25:49.908Z,7.37
2019-03-23T07:28:16.766Z,7.13
2019-03-23T07:30:43.388Z,6.97
2019-03-23T07:33:09.945Z,7.23
2019-03-23T07:35:36.579Z,8.37
2019-03-23T07:38:03.679Z,6.80
2019-03-23T07:40:31.034Z,6.83
2019-03-23T07:42:58.044Z,7.50
2019-03-23T07:45:24.866Z,7.37
2019-03-23T07:47:51.561Z,7.07
2019-03-23T07:50:18.171Z,6.80
2019-03-23T07:52:45.080Z,6.10
2019-03-23T07:55:14.110Z,6.00
2019-03-23T07:57:41.516Z,6.40
2019-03-23T08:00:13.885Z,6.37
2019-03-23T08:02:40.677Z,7.27
2019-03-23T08:05:10.637Z,6.53
2019-03-23T08:07:37.490Z,6.93
2019-03-23T08:11:00.488Z,5.40
2019-03-23T08:13:27.345Z,5.40
2019-03-23T08:15:54.175Z,4.97
2019-03-23T08:18:20.881Z,5.47
2019-03-23T08:20:47.532Z,5.20
2019-03-23T08:23:14.136Z,5.60
2019-03-23T08:25:40.783Z,5.37
2019-03-23T08:28:07.536Z,7.03
2019-03-23T08:30:34.277Z,5.87
2019-03-23T08:33:00.929Z,4.73
2019-03-23T08:35:27.751Z,5.60
2019-03-23T08:37:54.425Z,4.93
2019-03-23T08:40:21.107Z,4.60
2019-03-23T08:42:47.688Z,4.67
2019-03-23T08:45:14.802Z,4.60
2019-03-23T08:47:41.367Z,4.43
2019-03-23T08:50:08.731Z,4.43
2019-03-23T08:52:35.404Z,5.13
2019-03-23T08:55:03.153Z,4.07
2019-03-23T08:57:29.921Z,4.43
2019-03-23T08:59:56.854Z,3.83
2019-03-23T09:02:23.788Z,4.70
2019-03-23T09:04:50.364Z,4.10
2019-03-23T09:07:17.124Z,21.67
2019-03-23T09:09:43.777Z,4.10
2019-03-23T09:12:10.716Z,3.77
2019-03-23T09:14:37.388Z,3.50
2019-03-23T09:17:04.141Z,4.13
2019-03-23T09:19:30.966Z,4.07
2019-03-23T09:21:58.809Z,4.17
2019-03-23T09:24:25.433Z,4.07
2019-03-23T09:26:52.240Z,4.03
2019-03-23T09:29:19.005Z,3.97
2019-03-23T09:31:45.624Z,3.93
2019-03-23T09:34:12.363Z,3.47
2019-03-23T09:36:41.244Z,4.03
2019-03-23T09:39:07.650Z,4.30
2019-03-23T09:41:34.431Z,4.27
2019-03-23T09:44:01.311Z,4.30
2019-03-23T09:46:28.239Z,4.03
2019-03-23T09:48:55.047Z,3.93
2019-03-23T09:51:21.635Z,4.10
2019-03-23T09:53:48.442Z,4.07
2019-03-23T09:56:15.173Z,4.73
2019-03-23T09:58:41.786Z,4.77
2019-03-23T10:01:08.722Z,3.97
2019-03-23T10:03:35.351Z,4.30
2019-03-23T10:06:05.975Z,4.80
2019-03-23T10:08:34.117Z,6.10
2019-03-23T10:11:00.832Z,6.20
2019-03-23T10:13:28.591Z,6.90
2019-03-23T10:15:55.325Z,6.23
2019-03-23T10:18:22.019Z,5.90
2019-03-23T10:20:48.658Z,6.67
2019-03-23T10:23:15.284Z,5.77
2019-03-23T10:25:42.043Z,7.10
2019-03-23T10:28:08.756Z,6.33
2019-03-23T10:30:35.522Z,6.30
2019-03-23T10:33:02.093Z,6.60
2019-03-23T10:35:28.918Z,6.40
2019-03-23T10:37:55.618Z,5.40
2019-03-23T10:40:32.011Z,5.90
2019-03-23T10:42:51.348Z,5.50
2019-03-23T10:45:18.127Z,5.57
2019-03-23T10:47:45.091Z,6.17
2019-03-23T10:50:12.031Z,5.80
2019-03-23T10:52:38.715Z,5.30
2019-03-23T10:55:06.097Z,5.60
2019-03-23T10:57:32.717Z,4.87
2019-03-23T10:59:59.284Z,5.13
2019-03-23T11:02:25.970Z,5.53
2019-03-23T11:04:52.577Z,4.40
2019-03-23T11:07:19.271Z,5.03
2019-03-23T11:09:45.927Z,4.20
2019-03-23T11:12:12.657Z,4.37
2019-03-23T11:14:39.263Z,5.23
2019-03-23T11:17:05.918Z,4.07
2019-03-23T11:19:32.595Z,4.33
2019-03-23T11:21:59.179Z,4.27
2019-03-23T11:24:25.835Z,4.77
2019-03-23T11:26:53.439Z,4.40
2019-03-23T11:29:20.283Z,4.20
2019-03-23T11:31:46.921Z,4.97
2019-03-23T11:34:17.745Z,4.13
2019-03-23T11:36:42.277Z,4.00
2019-03-23T11:39:08.861Z,4.30
2019-03-23T11:41:35.603Z,4.00
2019-03-23T11:44:04.465Z,4.43
2019-03-23T11:46:31.151Z,4.67
2019-03-23T11:48:57.779Z,4.50
2019-03-23T11:51:24.497Z,4.17
2019-03-23T11:53:51.062Z,4.13
2019-03-23T11:56:17.714Z,3.80
2019-03-23T11:58:44.281Z,4.33
2019-03-23T12:01:11.054Z,4.47
2019-03-23T12:03:37.921Z,3.90
2019-03-23T12:06:04.872Z,4.57
2019-03-23T12:08:31.523Z,3.57
2019-03-23T12:11:02.790Z,3.80
2019-03-23T12:13:26.772Z,3.67
2019-03-23T12:15:53.332Z,3.17
2019-03-23T12:18:19.986Z,3.40
2019-03-23T12:20:46.647Z,4.10
2019-03-23T12:23:13.407Z,3.93
2019-03-23T12:25:39.975Z,3.70
2019-03-23T12:28:06.596Z,4.13
2019-03-23T12:30:33.349Z,3.67
2019-03-23T12:32:59.997Z,3.40
2019-03-23T12:35:26.871Z,3.77
2019-03-23T12:37:53.559Z,3.60
2019-03-23T12:40:20.113Z,3.33
2019-03-23T12:42:46.781Z,3.73
2019-03-23T12:45:16.852Z,2.97
2019-03-23T12:47:43.554Z,4.23
2019-03-23T12:50:11.034Z,4.00
2019-03-23T12:52:38.006Z,3.90
2019-03-23T12:55:09.375Z,3.93
2019-03-23T12:57:36.020Z,3.93
2019-03-23T13:00:08.460Z,4.20
2019-03-23T13:02:35.228Z,3.70
2019-03-23T13:05:04.464Z,3.80
2019-03-23T13:07:31.130Z,3.67
2019-03-23T13:09:57.727Z,3.43
2019-03-23T13:12:24.495Z,3.97
2019-03-23T13:14:51.271Z,4.00
2019-03-23T13:17:17.956Z,4.60
2019-03-23T13:19:44.530Z,4.00
2019-03-23T13:22:11.159Z,4.20
2019-03-23T13:24:37.705Z,4.50
2019-03-23T13:27:04.474Z,4.20
2019-03-23T13:29:31.062Z,4.40
2019-03-23T13:31:57.835Z,4.80
2019-03-23T13:34:24.455Z,5.70
2019-03-23T13:36:51.182Z,4.90
2019-03-23T13:39:17.755Z,4.53
2019-03-23T13:41:47.949Z,4.70
2019-03-23T13:44:16.053Z,5.00
2019-03-23T13:46:42.923Z,5.67
2019-03-23T13:49:09.491Z,4.73
2019-03-23T13:51:36.093Z,5.47
2019-03-23T13:54:02.942Z,10.13
2019-03-23T13:56:30.815Z,5.50
2019-03-23T13:58:57.490Z,5.43
2019-03-23T14:01:24.059Z,5.90
2019-03-23T14:03:50.599Z,5.23
2019-03-23T14:06:17.221Z,6.13
2019-03-23T14:08:43.909Z,5.40
2019-03-23T14:11:10.506Z,5.60
2019-03-23T14:13:37.074Z,5.90
2019-03-23T14:16:03.724Z,5.37
2019-03-23T14:18:30.347Z,6.53
2019-03-23T14:20:56.898Z,5.67
2019-03-23T14:23:23.544Z,5.17
2019-03-23T14:25:50.427Z,5.33
2019-03-23T14:28:17.025Z,5.57
2019-03-23T14:30:43.857Z,6.53
2019-03-23T14:33:10.540Z,5.43
2019-03-23T14:35:37.160Z,5.27
2019-03-23T14:38:03.875Z,5.57
2019-03-23T14:40:30.600Z,5.47
2019-03-23T14:42:57.242Z,5.30
2019-03-23T14:45:24.022Z,5.40
2019-03-23T14:47:50.607Z,5.77
2019-03-23T14:50:17.391Z,5.83
2019-03-23T14:52:44.068Z,6.23
2019-03-23T14:55:11.100Z,5.20
2019-03-23T14:57:40.471Z,5.30
2019-03-23T15:00:09.462Z,5.13
2019-03-23T15:02:37.455Z,5.37
2019-03-23T15:05:06.422Z,6.47
2019-03-23T15:07:33.032Z,7.07
2019-03-23T15:09:59.612Z,6.03
2019-03-23T15:12:26.324Z,4.90
2019-03-23T15:14:53.981Z,5.13
2019-03-23T15:17:20.560Z,5.77
2019-03-23T15:19:47.160Z,6.03
2019-03-23T15:22:13.896Z,6.73
2019-03-23T15:24:40.485Z,6.53
2019-03-23T15:27:07.071Z,8.17
2019-03-23T15:29:33.639Z,8.73
2019-03-23T15:32:00.195Z,53.40
2019-03-23T15:34:26.831Z,23.30
2019-03-23T15:36:53.470Z,9.93
2019-03-23T15:39:20.226Z,13.20
2019-03-23T15:41:46.929Z,9.50
2019-03-23T15:44:13.625Z,9.03
2019-03-23T15:46:40.227Z,10.00
2019-03-23T15:49:06.866Z,16.70
2019-03-23T15:51:33.469Z,8.93
2019-03-23T15:54:00.035Z,7.33
2019-03-23T15:56:26.753Z,7.93
2019-03-23T15:58:53.323Z,7.53
2019-03-23T16:01:19.916Z,7.27
2019-03-23T16:03:46.611Z,7.63
2019-03-23T16:06:13.307Z,8.57
2019-03-23T16:08:40.124Z,10.07
2019-03-23T16:11:06.836Z,9.00
2019-03-23T16:13:33.593Z,9.23
2019-03-23T16:16:00.183Z,7.97
2019-03-23T16:18:26.939Z,6.73
2019-03-23T16:20:53.516Z,5.17
2019-03-23T16:23:20.187Z,5.93
2019-03-23T16:25:46.760Z,5.50
2019-03-23T16:28:13.403Z,6.07
2019-03-23T16:30:40.022Z,5.97
2019-03-23T16:33:06.601Z,6.00
2019-03-23T16:35:34.287Z,6.30
2019-03-23T16:38:01.026Z,6.57
2019-03-23T16:40:27.875Z,6.00
2019-03-23T16:42:54.546Z,6.87
2019-03-23T16:45:21.506Z,9.13
2019-03-23T16:47:48.478Z,30.03
2019-03-23T16:50:15.254Z,41.90
2019-03-23T16:52:41.930Z,77.50
2019-03-23T16:55:10.123Z,146.27
2019-03-23T16:57:38.007Z,131.90
2019-03-23T17:00:10.351Z,109.30
2019-03-23T17:02:37.170Z,98.33
2019-03-23T17:05:05.118Z,90.83
2019-03-23T17:07:32.020Z,70.53
2019-03-23T17:09:58.599Z,54.30
2019-03-23T17:12:27.371Z,47.13
2019-03-23T17:14:53.973Z,41.30
2019-03-23T17:17:20.575Z,32.07
2019-03-23T17:19:47.281Z,31.87
2019-03-23T17:22:13.915Z,59.03
2019-03-23T17:24:40.488Z,60.07
2019-03-23T17:27:07.306Z,61.13
2019-03-23T17:29:33.958Z,59.30
2019-03-23T17:32:00.679Z,51.37
2019-03-23T17:34:28.772Z,48.93
2019-03-23T17:36:55.367Z,52.53
2019-03-23T17:39:23.392Z,51.90
2019-03-23T17:41:50.081Z,49.47
2019-03-23T17:44:16.939Z,54.67
2019-03-23T17:46:43.772Z,51.20
2019-03-23T17:49:10.463Z,57.40
2019-03-23T17:51:37.067Z,67.60
2019-03-23T17:54:03.853Z,93.17
2019-03-23T17:56:30.428Z,82.87
2019-03-23T17:58:57.061Z,63.43
2019-03-23T18:01:23.804Z,74.83
2019-03-23T18:03:50.792Z,107.73
2019-03-23T18:06:17.493Z,116.37
2019-03-23T18:08:44.174Z,109.23
2019-03-23T18:11:10.933Z,106.97
2019-03-23T18:13:37.917Z,95.90
2019-03-23T18:16:04.498Z,97.57
2019-03-23T18:18:31.595Z,117.77
2019-03-23T18:21:00.322Z,133.57
2019-03-23T18:23:26.989Z,122.10
2019-03-23T18:25:53.792Z,86.97
2019-03-23T18:28:20.574Z,69.90
2019-03-23T18:30:48.494Z,52.17
2019-03-23T18:33:15.171Z,40.00
2019-03-23T18:35:42.078Z,35.83
2019-03-23T18:38:08.946Z,34.97
2019-03-23T18:40:35.964Z,38.27
2019-03-23T18:43:05.506Z,33.57
2019-03-23T18:45:32.517Z,31.83
2019-03-23T18:47:59.099Z,36.37
2019-03-23T18:50:26.584Z,51.03
2019-03-23T18:52:53.282Z,76.13
2019-03-23T18:55:20.109Z,82.97
2019-03-23T18:57:46.827Z,78.30
2019-03-23T19:00:19.170Z,77.67
2019-03-23T19:02:45.932Z,95.10
2019-03-23T19:05:13.649Z,189.33
2019-03-23T19:07:43.910Z,189.63
2019-03-23T19:10:10.860Z,233.93
2019-03-23T19:12:37.558Z,208.93
2019-03-23T19:15:05.784Z,298.13
2019-03-23T19:17:32.354Z,268.40
2019-03-23T19:19:59.124Z,265.90
2019-03-23T19:22:25.732Z,268.87
2019-03-23T19:24:52.583Z,265.73
2019-03-23T19:27:19.203Z,225.30
2019-03-23T19:29:45.801Z,208.97
2019-03-23T19:32:12.704Z,188.07
2019-03-23T19:34:39.371Z,127.80
2019-03-23T19:37:06.168Z,124.20
2019-03-23T19:39:32.850Z,111.10
2019-03-23T19:41:59.527Z,85.30
2019-03-23T19:44:26.168Z,59.73
2019-03-23T19:46:52.924Z,59.90
2019-03-23T19:49:20.646Z,60.83
2019-03-23T19:51:47.408Z,57.17
2019-03-23T19:54:14.061Z,57.87
2019-03-23T19:56:46.937Z,57.80
2019-03-23T19:59:13.693Z,56.57
2019-03-23T20:01:40.255Z,57.63
2019-03-23T20:04:07.052Z,61.30
2019-03-23T20:06:36.743Z,59.93
2019-03-23T20:09:09.155Z,59.23
2019-03-23T20:11:35.806Z,61.00
2019-03-23T20:14:03.288Z,66.13
2019-03-23T20:16:29.992Z,62.70
2019-03-23T20:18:56.594Z,63.43
2019-03-23T20:21:23.429Z,66.87
2019-03-23T20:23:51.321Z,70.60
2019-03-23T20:26:18.160Z,77.80
2019-03-23T20:28:44.995Z,72.67
2019-03-23T20:31:12.015Z,92.17
2019-03-23T20:33:38.807Z,84.60
2019-03-23T20:36:05.373Z,87.00
2019-03-23T20:38:32.025Z,73.07
2019-03-23T20:40:58.764Z,74.70
2019-03-23T20:43:25.531Z,79.83
2019-03-23T20:45:52.487Z,78.77
2019-03-23T20:48:19.280Z,68.50
2019-03-23T20:50:47.206Z,73.63
2019-03-23T20:53:14.994Z,71.13
2019-03-23T20:55:42.991Z,73.57
2019-03-23T20:58:09.591Z,73.23
2019-03-23T21:00:36.187Z,74.00
2019-03-23T21:03:03.530Z,71.57
2019-03-23T21:05:34.221Z,71.57
2019-03-23T21:08:00.864Z,69.13
2019-03-23T21:10:27.819Z,69.70
2019-03-23T21:12:54.486Z,78.57
2019-03-23T21:15:26.500Z,83.80
2019-03-23T21:17:53.249Z,77.57
2019-03-23T21:20:20.041Z,85.87
2019-03-23T21:22:46.885Z,92.33
2019-03-23T21:25:14.405Z,95.87
2019-03-23T21:27:41.238Z,89.53
2019-03-23T21:30:16.629Z,89.70
2019-03-23T21:32:43.372Z,113.30
2019-03-23T21:35:10.889Z,141.07
2019-03-23T21:37:41.165Z,104.77
2019-03-23T21:40:08.421Z,114.73
2019-03-23T21:42:35.251Z,102.30
2019-03-23T21:45:05.422Z,99.30
2019-03-23T21:47:32.293Z,97.57
2019-03-23T21:49:58.966Z,98.93
2019-03-23T21:52:25.874Z,99.17
2019-03-23T21:54:53.007Z,95.90
2019-03-23T21:57:19.727Z,95.30
2019-03-23T21:59:46.297Z,90.00
2019-03-23T22:02:13.243Z,95.47
2019-03-23T22:04:39.881Z,93.73
2019-03-23T22:07:06.583Z,97.07
2019-03-23T22:09:33.247Z,96.03
2019-03-23T22:11:59.904Z,96.23
2019-03-23T22:14:26.438Z,93.07
2019-03-23T22:16:53.057Z,103.70
2019-03-23T22:19:19.728Z,103.90
2019-03-23T22:21:46.350Z,104.23
2019-03-23T22:24:14.029Z,105.43
2019-03-23T22:26:40.580Z,83.60
2019-03-23T22:29:07.171Z,80.27
2019-03-23T22:31:33.720Z,81.50
2019-03-23T22:34:00.326Z,78.80
2019-03-23T22:36:27.035Z,73.60
2019-03-23T22:38:53.954Z,70.57
2019-03-23T22:41:20.552Z,66.57
2019-03-23T22:43:47.275Z,67.67
2019-03-23T22:46:13.867Z,69.63
2019-03-23T22:48:40.754Z,62.23
2019-03-23T22:51:07.340Z,61.10
2019-03-23T22:53:34.026Z,61.80
2019-03-23T22:56:02.747Z,55.83
2019-03-23T22:58:29.967Z,51.47
2019-03-23T23:00:57.179Z,43.43
2019-03-23T23:03:24.044Z,38.43
2019-03-23T23:05:50.758Z,40.70
2019-03-23T23:08:17.573Z,37.63
2019-03-23T23:10:44.460Z,34.50
2019-03-23T23:13:11.371Z,40.73
2019-03-23T23:15:38.135Z,32.43
2019-03-23T23:18:05.018Z,31.33
2019-03-23T23:20:31.715Z,33.17
2019-03-23T23:22:58.413Z,32.20
2019-03-23T23:25:25.124Z,27.63
2019-03-23T23:28:48.171Z,24.97
2019-03-23T23:31:14.870Z,22.10
2019-03-23T23:33:41.503Z,20.07
2019-03-23T23:36:08.173Z,19.40
2019-03-23T23:38:34.739Z,18.90
2019-03-23T23:41:01.459Z,18.43
2019-03-23T23:43:28.361Z,16.70
2019-03-23T23:45:55.039Z,15.87
2019-03-23T23:48:21.666Z,16.63
2019-03-23T23:50:48.413Z,17.07
2019-03-23T23:53:14.980Z,16.27
2019-03-23T23:55:41.552Z,17.37
2019-03-23T23:58:08.201Z,16.80
